Time;durP1;ratioP1;P1;durP2;ratioP2;P2;SDS_P1;SDS_P2;PMS_P1;PMS_P2;Temp;Humidity;BMP_temperature;BMP_pressure;BME280_temperature;BME280_humidity;BME280_pressure;Samples;Min_cycle;Max_cycle;Signal;HPM_P1;HPM_P2
2023/03/31 00:01:44;;;;;;;5.03;2.10;;;;;;;9.85;100.00;99873.72;6051170;28;20584;-72
2023/03/31 00:04:44;;;;;;;9.27;2.78;;;;;;;9.79;100.00;99863.75;6050928;28;20043;-71
2023/03/31 00:07:40;;;;;;;4.47;1.70;;;;;;;9.79;100.00;99869.06;6050922;28;20033;-73
2023/03/31 00:10:35;;;;;;;10.73;2.33;;;;;;;9.72;100.00;99857.47;6051167;28;20379;-72
2023/03/31 00:13:30;;;;;;;9.97;3.07;;;;;;;9.54;100.00;99844.34;6057847;28;20048;-72
2023/03/31 00:16:26;;;;;;;8.15;2.05;;;;;;;9.53;100.00;99851.47;6050943;28;20030;-73
2023/03/31 00:19:21;;;;;;;11.43;2.33;;;;;;;9.57;100.00;99855.44;6050634;28;20034;-72
2023/03/31 00:22:21;;;;;;;6.90;2.27;;;;;;;9.59;100.00;99853.44;6050516;28;20036;-72
2023/03/31 00:25:16;;;;;;;5.60;1.77;;;;;;;9.61;100.00;99848.00;6049987;28;20033;-71
2023/03/31 00:28:12;;;;;;;7.57;2.70;;;;;;;9.62;100.00;99844.34;6050585;28;20033;-72
2023/03/31 00:31:07;;;;;;;7.00;2.17;;;;;;;9.65;100.00;99840.59;6050674;28;20517;-72
2023/03/31 00:34:02;;;;;;;5.97;2.27;;;;;;;9.73;100.00;99845.91;6049744;28;20030;-72
2023/03/31 00:37:01;;;;;;;7.07;2.27;;;;;;;9.68;100.00;99832.28;6050453;28;20050;-72
2023/03/31 00:39:57;;;;;;;5.10;2.15;;;;;;;9.75;100.00;99830.69;6050286;28;20050;-73
2023/03/31 00:42:52;;;;;;;7.22;2.40;;;;;;;9.69;100.00;99812.78;6049899;28;20030;-73
2023/03/31 00:45:48;;;;;;;4.30;1.70;;;;;;;9.78;100.00;99820.59;6050664;28;20033;-72
2023/03/31 00:48:49;;;;;;;5.95;1.85;;;;;;;9.85;100.00;99818.09;6048839;28;20029;-73
2023/03/31 00:51:45;;;;;;;7.38;1.73;;;;;;;9.75;100.00;99804.19;6050361;28;20467;-71
2023/03/31 00:54:41;;;;;;;4.15;1.70;;;;;;;9.81;100.00;99820.25;6054599;28;20022;-72
2023/03/31 00:57:40;;;;;;;5.95;1.60;;;;;;;9.91;100.00;99828.06;6048801;28;20036;-72
2023/03/31 01:00:35;;;;;;;5.90;1.80;;;;;;;9.88;100.00;99804.53;6032627;28;20463;-72
2023/03/31 01:03:32;;;;;;;3.77;1.20;;;;;;;9.87;100.00;99810.81;6048838;28;20096;-72
2023/03/31 01:06:29;;;;;;;7.82;1.50;;;;;;;9.79;100.00;99806.34;6050011;28;20084;-71
2023/03/31 01:09:29;;;;;;;6.32;1.60;;;;;;;9.84;100.00;99811.97;6049536;28;20048;-71
2023/03/31 01:12:26;;;;;;;6.97;1.40;;;;;;;9.79;100.00;99802.88;6048659;28;20038;-70
2023/03/31 01:15:21;;;;;;;6.60;1.73;;;;;;;9.76;100.00;99784.66;6048864;28;20041;-72
2023/03/31 01:18:20;;;;;;;6.60;1.30;;;;;;;9.90;100.00;99784.00;6049017;28;20053;-71
2023/03/31 01:21:29;;;;;;;5.18;1.48;;;;;;;9.91;100.00;99785.69;6032486;28;20261;-73
2023/03/31 01:25:02;;;;;;;4.53;1.50;;;;;;;10.03;100.00;99787.00;6047540;28;20038;-72
2023/03/31 01:28:19;;;;;;;9.63;1.55;;;;;;;10.07;99.96;99778.56;6049382;28;20026;-72
2023/03/31 01:31:25;;;;;;;6.72;1.42;;;;;;;10.07;99.27;99775.09;6049654;28;20041;-72
2023/03/31 01:34:31;;;;;;;10.13;1.60;;;;;;;9.94;99.07;99754.41;6032146;28;20667;-72
2023/03/31 01:37:46;;;;;;;4.28;1.20;;;;;;;10.00;98.79;99760.88;6031565;28;20109;-71
2023/03/31 01:40:51;;;;;;;4.13;1.25;;;;;;;10.01;98.33;99754.56;6064063;28;20038;-71
2023/03/31 01:44:11;;;;;;;5.28;1.40;;;;;;;10.14;98.03;99766.34;6031257;28;20088;-72
2023/03/31 01:47:16;;;;;;;4.18;1.10;;;;;;;10.21;97.11;99757.72;6031556;28;20061;-73
2023/03/31 01:50:33;;;;;;;7.05;1.00;;;;;;;10.20;96.59;99735.72;6049342;28;20034;-72
2023/03/31 01:53:50;;;;;;;6.05;1.38;;;;;;;10.21;96.26;99747.97;6049367;28;20041;-72
2023/03/31 01:56:51;;;;;;;3.25;0.98;;;;;;;10.14;96.34;99731.06;6048906;28;20074;-72
2023/03/31 02:00:07;;;;;;;6.72;1.05;;;;;;;10.10;96.30;99735.03;6031345;28;20049;-72
2023/03/31 02:03:13;;;;;;;4.13;1.23;;;;;;;10.02;96.04;99719.16;6048956;28;20121;-72
2023/03/31 02:06:13;;;;;;;4.07;0.98;;;;;;;10.02;96.02;99732.41;6046872;28;20709;-71
2023/03/31 02:09:12;;;;;;;5.25;1.10;;;;;;;9.92;96.54;99721.16;6049412;28;20041;-71
2023/03/31 02:12:09;;;;;;;3.65;1.20;;;;;;;9.84;97.31;99719.31;6068766;28;20049;-70
2023/03/31 02:15:08;;;;;;;6.00;1.48;;;;;;;9.69;97.70;99709.56;6051821;28;20470;-71
2023/03/31 02:18:09;;;;;;;8.30;1.50;;;;;;;9.64;98.16;99703.94;6035944;28;20025;-72
2023/03/31 02:21:06;;;;;;;5.38;1.58;;;;;;;9.57;98.59;99707.22;6054547;28;20040;-72
2023/03/31 02:24:05;;;;;;;6.90;1.60;;;;;;;9.40;99.19;99684.38;6075880;28;20068;-70
2023/03/31 02:27:06;;;;;;;4.30;1.23;;;;;;;9.34;100.00;99694.81;6085875;28;20073;-70
2023/03/31 02:30:02;;;;;;;5.35;1.50;;;;;;;9.23;100.00;99677.44;6053422;28;20045;-71
2023/03/31 02:32:58;;;;;;;7.95;1.38;;;;;;;9.28;100.00;99690.16;6041021;28;20037;-71
2023/03/31 02:35:54;;;;;;;6.18;1.63;;;;;;;9.28;100.00;99696.28;6068085;28;20502;-70
2023/03/31 02:38:55;;;;;;;5.47;1.45;;;;;;;9.29;100.00;99691.81;6053023;28;20034;-71
2023/03/31 02:41:50;;;;;;;4.82;1.30;;;;;;;9.37;100.00;99684.72;6053357;28;20030;-70
2023/03/31 02:44:46;;;;;;;4.00;1.60;;;;;;;9.29;100.00;99671.50;6052449;28;20062;-71
2023/03/31 02:47:41;;;;;;;4.23;1.13;;;;;;;9.22;100.00;99659.91;6035090;28;20510;-69
2023/03/31 02:51:11;;;;;;;9.00;1.40;;;;;;;9.29;99.97;99671.50;6051670;28;20413;-70
2023/03/31 02:54:17;;;;;;;6.38;1.33;;;;;;;9.12;100.00;99648.66;6049959;28;20076;-70
2023/03/31 02:57:37;;;;;;;4.82;1.10;;;;;;;9.18;100.00;99649.81;6040137;28;20029;-70
2023/03/31 03:00:56;;;;;;;3.30;1.27;;;;;;;9.21;100.00;99662.72;6076739;28;20041;-70
2023/03/31 03:04:08;;;;;;;5.28;1.15;;;;;;;9.12;100.00;99648.66;6032334;28;20030;-70
2023/03/31 03:07:12;;;;;;;7.45;1.15;;;;;;;9.09;100.00;99656.91;6068172;28;20478;-71
2023/03/31 03:10:28;;;;;;;3.05;1.02;;;;;;;8.98;100.00;99646.63;6035067;28;20038;-70
2023/03/31 03:13:29;;;;;;;6.43;1.48;;;;;;;9.03;100.00;99657.53;6051859;28;20479;-72
2023/03/31 03:16:28;;;;;;;7.25;1.52;;;;;;;9.00;100.00;99649.94;6053523;28;20161;-73
2023/03/31 03:19:23;;;;;;;7.15;1.23;;;;;;;9.02;100.00;99644.50;6035110;28;20066;-71
2023/03/31 03:22:18;;;;;;;2.20;1.10;;;;;;;9.11;100.00;99646.16;6034421;28;20040;-71
2023/03/31 03:25:16;;;;;;;6.30;1.50;;;;;;;9.09;100.00;99642.84;6051608;28;20033;-71
2023/03/31 03:28:11;;;;;;;7.45;1.15;;;;;;;9.03;100.00;99617.03;6052375;28;20038;-71
2023/03/31 03:31:08;;;;;;;3.03;1.17;;;;;;;9.15;100.00;99626.34;6051679;28;20111;-72
2023/03/31 03:34:03;;;;;;;2.97;1.00;;;;;;;9.12;100.00;99616.91;6070504;28;20037;-71
2023/03/31 03:36:58;;;;;;;1.30;0.70;;;;;;;9.09;100.00;99603.19;6076042;28;20041;-72
2023/03/31 03:39:54;;;;;;;3.30;1.23;;;;;;;9.16;100.00;99612.13;6075590;28;20041;-71
2023/03/31 03:42:49;;;;;;;6.57;1.33;;;;;;;9.13;99.67;99602.69;6076307;28;20059;-72
2023/03/31 03:45:48;;;;;;;4.50;1.23;;;;;;;9.17;99.82;99601.38;6074930;28;20099;-71
2023/03/31 03:48:43;;;;;;;6.55;1.00;;;;;;;9.06;99.79;99591.09;6073880;28;20033;-73
2023/03/31 03:51:39;;;;;;;8.70;0.90;;;;;;;9.09;100.00;99596.06;6075333;28;20037;-71
2023/03/31 03:54:34;;;;;;;3.23;0.87;;;;;;;8.97;99.95;99563.84;6071917;28;20033;-71
2023/03/31 03:57:29;;;;;;;4.35;0.88;;;;;;;9.05;100.00;99583.34;6051238;28;20292;-72
2023/03/31 04:00:25;;;;;;;7.17;1.30;;;;;;;8.92;100.00;99552.09;6051065;28;20038;-71
2023/03/31 04:03:20;;;;;;;8.20;0.90;;;;;;;8.95;100.00;99559.69;6050316;28;20042;-72
2023/03/31 04:06:15;;;;;;;5.17;1.00;;;;;;;8.89;100.00;99558.53;6052276;28;20741;-70
2023/03/31 04:09:11;;;;;;;4.33;1.23;;;;;;;8.90;100.00;99559.38;6050813;28;20037;-72
2023/03/31 04:12:06;;;;;;;8.13;1.20;;;;;;;8.84;100.00;99552.09;6050657;28;20038;-71
2023/03/31 04:15:03;;;;;;;6.53;1.00;;;;;;;8.82;100.00;99551.44;6073977;28;20040;-72
2023/03/31 04:17:58;;;;;;;4.13;1.00;;;;;;;8.79;100.00;99542.00;6074788;28;20025;-71
2023/03/31 04:21:02;;;;;;;1.73;0.90;;;;;;;8.79;100.00;99535.91;6064133;28;20044;-71
2023/03/31 04:24:00;;;;;;;4.82;0.98;;;;;;;8.65;100.00;99523.31;6053187;28;20029;-71
2023/03/31 04:26:56;;;;;;;4.05;1.33;;;;;;;8.66;100.00;99517.06;6050702;28;20066;-71
2023/03/31 04:29:53;;;;;;;3.08;1.00;;;;;;;8.60;100.00;99523.81;6051663;28;20065;-72
2023/03/31 04:32:54;;;;;;;3.40;1.27;;;;;;;8.45;100.00;99506.13;6052875;28;20037;-70
2023/03/31 04:35:51;;;;;;;5.60;1.45;;;;;;;8.49;100.00;99500.34;6071402;28;20505;-69
2023/03/31 04:38:53;;;;;;;4.78;0.98;;;;;;;8.38;100.00;99490.91;6057881;28;20562;-71
2023/03/31 04:41:48;;;;;;;4.88;1.52;;;;;;;8.34;100.00;99489.56;6044241;28;20077;-69
2023/03/31 04:44:44;;;;;;;6.50;1.13;;;;;;;8.36;100.00;99482.34;6052089;28;20045;-71
2023/03/31 04:47:39;;;;;;;3.53;1.17;;;;;;;8.34;100.00;99473.72;6074145;28;20363;-71
2023/03/31 04:50:42;;;;;;;7.00;1.47;;;;;;;8.41;100.00;99475.72;6057348;28;20045;-70
2023/03/31 04:53:37;;;;;;;5.93;1.45;;;;;;;8.51;100.00;99461.38;6066881;28;20041;-69
2023/03/31 04:56:33;;;;;;;4.60;1.40;;;;;;;8.47;100.00;99436.28;6075159;28;20051;-70
2023/03/31 04:59:28;;;;;;;5.63;1.52;;;;;;;8.59;100.00;99426.22;6049009;28;20022;-71
2023/03/31 05:02:23;;;;;;;6.57;1.40;;;;;;;8.61;100.00;99426.88;6049898;28;20049;-70
2023/03/31 05:05:18;;;;;;;4.07;1.20;;;;;;;8.71;100.00;99435.47;6049934;28;20036;-70
2023/03/31 05:08:14;;;;;;;5.93;1.30;;;;;;;8.67;100.00;99410.38;6068889;28;20033;-69
2023/03/31 05:11:10;;;;;;;2.97;1.13;;;;;;;8.71;100.00;99412.50;6061194;28;20037;-71
2023/03/31 05:14:05;;;;;;;5.43;1.60;;;;;;;8.85;100.00;99421.59;6060793;28;20037;-71
2023/03/31 05:17:00;;;;;;;5.90;1.50;;;;;;;8.88;100.00;99419.44;6041636;28;20129;-70
2023/03/31 05:19:55;;;;;;;6.40;1.50;;;;;;;8.88;100.00;99406.22;6059750;28;20030;-69
2023/03/31 05:22:51;;;;;;;6.87;1.87;;;;;;;8.97;100.00;99413.13;6057178;28;20037;-71
2023/03/31 05:25:46;;;;;;;7.75;1.83;;;;;;;8.91;100.00;99391.84;6062989;28;20382;-70
2023/03/31 05:28:41;;;;;;;7.77;2.30;;;;;;;9.07;100.00;99405.03;6060675;28;20036;-69
2023/03/31 05:31:37;;;;;;;8.27;2.03;;;;;;;9.13;100.00;99395.59;6073198;28;20030;-70
2023/03/31 05:34:32;;;;;;;3.27;1.33;;;;;;;9.11;100.00;99389.63;6059571;28;20026;-70
2023/03/31 05:37:27;;;;;;;6.15;1.20;;;;;;;9.15;100.00;99391.78;6049104;28;20029;-70
2023/03/31 05:40:23;;;;;;;4.87;1.17;;;;;;;9.21;100.00;99398.22;6051431;28;20060;-68
2023/03/31 05:43:18;;;;;;;3.23;1.40;;;;;;;9.13;100.00;99379.72;6072662;28;20037;-70
2023/03/31 05:46:13;;;;;;;8.27;1.10;;;;;;;9.16;100.00;99372.25;6072630;28;20628;-73
2023/03/31 05:49:10;;;;;;;5.40;1.43;;;;;;;9.22;100.00;99376.88;6072902;28;20025;-72
2023/03/31 05:52:06;;;;;;;6.60;1.40;;;;;;;9.26;100.00;99395.88;6073068;28;20049;-71
2023/03/31 05:55:02;;;;;;;5.78;1.15;;;;;;;9.36;100.00;99402.63;6066053;28;20466;-70
2023/03/31 05:57:57;;;;;;;3.22;1.10;;;;;;;9.37;100.00;99371.72;6056426;28;20103;-72
2023/03/31 06:01:07;;;;;;;5.20;1.17;;;;;;;9.43;100.00;99386.91;6072940;28;20037;-73
2023/03/31 06:04:03;;;;;;;5.70;1.38;;;;;;;9.47;100.00;99383.75;6052018;28;20066;-71
2023/03/31 06:06:58;;;;;;;6.27;1.17;;;;;;;9.43;100.00;99377.13;6049141;28;20030;-72
2023/03/31 06:09:54;;;;;;;5.80;1.23;;;;;;;9.45;100.00;99369.03;6048689;28;20018;-73
2023/03/31 06:12:49;;;;;;;4.53;0.90;;;;;;;9.48;100.00;99385.38;6048993;28;20042;-73
2023/03/31 06:15:52;;;;;;;6.50;0.93;;;;;;;9.46;100.00;99366.19;6066030;28;20276;-72
2023/03/31 06:18:50;;;;;;;2.70;0.85;;;;;;;9.54;100.00;99367.97;6072687;28;20363;-71
2023/03/31 06:21:45;;;;;;;3.67;1.00;;;;;;;9.50;100.00;99341.06;6072742;28;20030;-71
2023/03/31 06:24:40;;;;;;;8.40;1.30;;;;;;;9.67;100.00;99357.69;6071849;28;20036;-71
2023/03/31 06:27:36;;;;;;;2.10;0.83;;;;;;;9.71;100.00;99355.50;6072380;28;20026;-73
2023/03/31 06:30:31;;;;;;;4.17;1.37;;;;;;;9.59;100.00;99334.72;6069329;28;20475;-73
2023/03/31 06:33:26;;;;;;;3.20;0.67;;;;;;;9.63;100.00;99340.50;6050383;28;20038;-73
2023/03/31 06:36:22;;;;;;;2.15;0.90;;;;;;;9.67;100.00;99343.63;6072641;28;20128;-72
2023/03/31 06:39:17;;;;;;;5.07;1.20;;;;;;;9.62;100.00;99322.16;6072046;28;20040;-71
2023/03/31 06:42:12;;;;;;;1.17;0.50;;;;;;;9.76;100.00;99335.44;6072568;28;20033;-71
2023/03/31 06:45:08;;;;;;;5.90;1.23;;;;;;;9.83;99.94;99327.66;6071659;28;20386;-71
2023/03/31 06:48:03;;;;;;;4.38;0.90;;;;;;;9.96;99.83;99326.06;6070725;28;20501;-73
2023/03/31 06:51:01;;;;;;;4.07;1.08;;;;;;;9.93;98.93;99315.81;6072276;28;20060;-71
2023/03/31 06:53:56;;;;;;;3.63;0.82;;;;;;;9.96;98.77;99323.41;6071832;28;20032;-72
2023/03/31 06:56:51;;;;;;;2.57;0.83;;;;;;;9.94;98.51;99322.78;6053525;28;20033;-73
2023/03/31 06:59:46;;;;;;;4.40;1.00;;;;;;;10.01;98.57;99325.53;6052271;28;20475;-74
2023/03/31 07:02:42;;;;;;;3.83;1.00;;;;;;;10.02;99.08;99325.38;6052784;28;20088;-72
2023/03/31 07:05:37;;;;;;;3.13;0.70;;;;;;;10.05;98.98;99313.59;6053062;28;20037;-72
2023/03/31 07:08:32;;;;;;;5.27;0.80;;;;;;;10.04;99.66;99311.94;6052796;28;20742;-72
2023/03/31 07:11:28;;;;;;;4.77;1.10;;;;;;;9.87;100.00;99316.50;6060202;28;20061;-71
2023/03/31 07:14:23;;;;;;;4.50;0.87;;;;;;;9.84;100.00;99313.38;6057727;28;20038;-73
2023/03/31 07:17:18;;;;;;;4.30;0.77;;;;;;;9.75;100.00;99309.16;6065445;28;20449;-71
2023/03/31 07:20:14;;;;;;;6.17;1.50;;;;;;;9.55;100.00;99290.25;6053207;28;20261;-70
2023/03/31 07:23:10;;;;;;;6.07;1.23;;;;;;;9.53;100.00;99303.66;6087683;28;20428;-70
2023/03/31 07:26:05;;;;;;;4.43;0.93;;;;;;;9.54;100.00;99309.75;6090707;28;20030;-71
2023/03/31 07:29:00;;;;;;;6.27;1.20;;;;;;;9.56;100.00;99305.97;6076115;28;20091;-71
2023/03/31 07:31:56;;;;;;;5.00;1.13;;;;;;;9.57;100.00;99293.53;6076389;28;20280;-71
2023/03/31 07:34:51;;;;;;;5.13;1.30;;;;;;;9.55;100.00;99284.97;6075377;28;20025;-69
2023/03/31 07:37:47;;;;;;;4.20;1.40;;;;;;;9.52;100.00;99270.25;6075049;28;20062;-70
2023/03/31 07:40:44;;;;;;;5.93;1.40;;;;;;;9.52;100.00;99264.97;6075686;28;20080;-71
2023/03/31 07:43:39;;;;;;;6.50;1.65;;;;;;;9.50;100.00;99261.69;6075165;28;20021;-71
2023/03/31 07:46:34;;;;;;;7.97;1.90;;;;;;;9.51;100.00;99246.63;6075517;28;20051;-70
2023/03/31 07:49:31;;;;;;;7.87;1.90;;;;;;;9.63;100.00;99271.69;6075227;28;20462;-71
2023/03/31 07:52:26;;;;;;;5.10;1.80;;;;;;;9.57;100.00;99245.91;6073831;28;20075;-70
2023/03/31 07:55:22;;;;;;;3.93;1.50;;;;;;;9.67;100.00;99257.09;6050725;28;20033;-71
2023/03/31 07:58:17;;;;;;;3.53;1.63;;;;;;;9.64;100.00;99246.88;6066475;28;20028;-70
2023/03/31 08:01:15;;;;;;;7.47;1.90;;;;;;;9.68;100.00;99242.03;6051333;28;20372;-71
2023/03/31 08:04:11;;;;;;;8.18;2.05;;;;;;;9.84;100.00;99253.31;6050626;28;20061;-70
2023/03/31 08:07:07;;;;;;;4.33;1.30;;;;;;;9.83;100.00;99242.94;6050052;28;20026;-71
2023/03/31 08:10:05;;;;;;;3.60;1.50;;;;;;;9.80;100.00;99228.22;6050799;28;20284;-70
2023/03/31 08:13:00;;;;;;;4.70;1.58;;;;;;;9.95;100.00;99228.25;6071090;28;20160;-70
2023/03/31 08:15:55;;;;;;;6.57;1.53;;;;;;;9.94;100.00;99216.03;6074212;28;20029;-71
2023/03/31 08:18:51;;;;;;;5.93;1.57;;;;;;;10.12;100.00;99216.50;6074670;28;20557;-71
2023/03/31 08:21:46;;;;;;;3.40;1.83;;;;;;;10.29;100.00;99211.91;6074709;28;20022;-72
2023/03/31 08:24:41;;;;;;;3.25;1.50;;;;;;;10.21;100.00;99217.31;6072078;28;20280;-70
2023/03/31 08:27:39;;;;;;;3.63;1.43;;;;;;;10.33;100.00;99211.38;6074252;28;20025;-71
2023/03/31 08:30:36;;;;;;;6.05;1.70;;;;;;;10.37;100.00;99180.88;6074518;28;20390;-72
2023/03/31 08:33:31;;;;;;;3.28;1.40;;;;;;;10.41;100.00;99187.44;6073533;28;20044;-72
2023/03/31 08:36:27;;;;;;;5.97;1.30;;;;;;;10.36;100.00;99194.28;6074545;28;20045;-71
2023/03/31 08:39:22;;;;;;;5.40;1.55;;;;;;;10.32;100.00;99177.94;6074001;28;20026;-72
2023/03/31 08:42:28;;;;;;;5.87;1.80;;;;;;;10.41;100.00;99181.34;6060657;28;20104;-71
2023/03/31 08:45:28;;;;;;;7.93;2.53;;;;;;;10.49;100.00;99174.09;6048613;28;20057;-72
2023/03/31 08:48:37;;;;;;;9.75;1.92;;;;;;;10.47;100.00;99144.31;6053381;28;20026;-74
2023/03/31 08:51:37;;;;;;;7.05;2.38;;;;;;;10.65;100.00;99154.53;6032580;28;20036;-72
2023/03/31 08:54:36;;;;;;;7.57;2.47;;;;;;;10.79;100.00;99158.19;6031692;28;20036;-73
2023/03/31 08:57:57;;;;;;;8.48;2.90;;;;;;;10.83;100.00;99151.47;6033607;28;20106;-71
2023/03/31 09:00:52;;;;;;;3.90;1.10;;;;;;;10.91;100.00;99146.06;6044081;28;20506;-71
2023/03/31 09:04:06;;;;;;;2.50;1.30;;;;;;;10.81;100.00;99137.59;6049186;28;20091;-71
2023/03/31 09:07:23;;;;;;;3.03;1.10;;;;;;;10.92;100.00;99140.59;6049489;28;20044;-71
2023/03/31 09:10:43;;;;;;;3.92;1.20;;;;;;;10.82;99.86;99129.44;6049804;28;20573;-72
2023/03/31 09:13:58;;;;;;;7.97;1.58;;;;;;;10.89;98.95;99132.19;6052822;28;20525;-71
2023/03/31 09:17:01;;;;;;;6.28;1.40;;;;;;;10.81;98.81;99116.38;6049656;28;20096;-72
2023/03/31 09:20:00;;;;;;;4.30;1.20;;;;;;;10.73;98.37;99112.81;6064604;28;20057;-72
2023/03/31 09:23:17;;;;;;;2.92;1.10;;;;;;;10.77;98.95;99130.00;6064657;28;20044;-71
2023/03/31 09:26:26;;;;;;;7.10;1.50;;;;;;;10.75;99.64;99121.44;6064727;28;20124;-70
2023/03/31 09:29:28;;;;;;;5.65;1.23;;;;;;;10.78;99.39;99120.22;6032000;28;20502;-72
2023/03/31 09:32:26;;;;;;;6.93;1.42;;;;;;;10.82;99.73;99105.56;6066001;28;20046;-72
2023/03/31 09:35:27;;;;;;;7.53;1.58;;;;;;;10.81;100.00;99109.25;6048560;28;20038;-71
2023/03/31 09:38:23;;;;;;;3.85;1.40;;;;;;;10.73;100.00;99107.50;6049015;28;20045;-71
2023/03/31 09:41:19;;;;;;;8.27;1.50;;;;;;;10.68;100.00;99101.94;6031960;28;20410;-72
2023/03/31 09:44:33;;;;;;;2.10;1.40;;;;;;;10.73;100.00;99112.81;6048650;28;20541;-72
2023/03/31 09:47:32;;;;;;;4.80;1.33;;;;;;;10.65;100.00;99104.97;6059001;28;20048;-71
2023/03/31 09:50:29;;;;;;;3.72;1.10;;;;;;;10.56;100.00;99095.50;6074762;28;20060;-72
2023/03/31 09:53:32;;;;;;;5.18;1.20;;;;;;;10.52;100.00;99098.69;6097118;28;20045;-72
2023/03/31 09:56:34;;;;;;;3.97;1.30;;;;;;;10.45;100.00;99090.69;6073913;28;20546;-72
2023/03/31 09:59:34;;;;;;;4.93;1.20;;;;;;;10.37;100.00;99090.78;6031474;28;20430;-72
2023/03/31 10:02:37;;;;;;;4.20;1.20;;;;;;;10.27;100.00;99082.28;6049059;28;20494;-72
2023/03/31 10:05:36;;;;;;;9.20;1.85;;;;;;;10.18;100.00;99085.22;6049679;28;20506;-72
2023/03/31 10:08:42;;;;;;;5.05;1.30;;;;;;;10.20;100.00;99091.97;6031513;28;20049;-71
2023/03/31 10:11:38;;;;;;;4.20;1.23;;;;;;;10.13;100.00;99088.41;6034315;28;20475;-72
2023/03/31 10:14:44;;;;;;;3.42;1.30;;;;;;;10.02;100.00;99096.78;6048026;28;20044;-72
2023/03/31 10:17:41;;;;;;;5.65;1.50;;;;;;;10.01;100.00;99093.31;6048828;28;20062;-72
2023/03/31 10:20:38;;;;;;;4.95;1.27;;;;;;;9.94;100.00;99088.94;6047890;28;20080;-73
2023/03/31 10:23:34;;;;;;;4.65;1.73;;;;;;;9.88;100.00;99089.66;6049400;28;20180;-73
2023/03/31 10:26:29;;;;;;;3.50;1.60;;;;;;;9.76;100.00;99075.19;6049328;28;20471;-72
2023/03/31 10:29:30;;;;;;;4.30;1.30;;;;;;;9.83;100.00;99092.03;6049271;28;20037;-71
2023/03/31 10:32:33;;;;;;;6.75;1.55;;;;;;;9.81;100.00;99084.25;6035478;28;20776;-71
2023/03/31 10:35:32;;;;;;;9.20;2.28;;;;;;;9.76;100.00;99086.63;6035527;28;20036;-70
2023/03/31 10:38:33;;;;;;;5.88;1.33;;;;;;;9.65;100.00;99067.72;6035549;28;20037;-74
2023/03/31 10:41:29;;;;;;;6.82;1.90;;;;;;;9.66;100.00;99079.94;6054570;28;20069;-71
2023/03/31 10:44:38;;;;;;;3.53;1.10;;;;;;;9.49;100.00;99074.81;6062313;28;20766;-70
2023/03/31 10:47:33;;;;;;;4.20;1.08;;;;;;;9.50;100.00;99075.63;6074386;28;20042;-70
2023/03/31 10:50:34;;;;;;;3.43;1.40;;;;;;;9.38;100.00;99071.75;6053008;28;20044;-73
2023/03/31 10:53:45;;;;;;;4.22;1.45;;;;;;;9.47;100.00;99082.09;6053013;28;20113;-71
2023/03/31 10:56:45;;;;;;;3.47;1.33;;;;;;;9.42;100.00;99078.34;6069247;28;20029;-73
2023/03/31 10:59:46;;;;;;;3.25;1.33;;;;;;;9.46;100.00;99091.03;6058666;28;20474;-74
2023/03/31 11:02:56;;;;;;;4.40;1.20;;;;;;;9.45;100.00;99089.41;6067433;28;20046;-71
2023/03/31 11:06:00;;;;;;;5.05;1.83;;;;;;;9.49;100.00;99077.44;6051822;28;20128;-72
2023/03/31 11:09:11;;;;;;;2.67;1.30;;;;;;;9.45;100.00;99078.81;6051660;28;20091;-73
2023/03/31 11:12:38;;;;;;;5.10;1.08;;;;;;;9.43;100.00;99070.22;6052844;28;20038;-72
2023/03/31 11:15:41;;;;;;;5.43;1.33;;;;;;;9.39;100.00;99046.97;6066014;28;20130;-73
2023/03/31 11:18:51;;;;;;;1.77;0.90;;;;;;;9.42;100.00;99065.94;6035239;28;20030;-73
2023/03/31 11:22:16;;;;;;;4.53;2.05;;;;;;;9.50;100.00;99078.28;6051465;28;20034;-73
2023/03/31 11:25:26;;;;;;;8.35;1.23;;;;;;;9.44;100.00;99050.72;6040913;28;20406;-71
2023/03/31 11:28:43;;;;;;;4.07;1.13;;;;;;;9.51;100.00;99056.91;6034841;28;20030;-71
2023/03/31 11:31:46;;;;;;;4.00;0.90;;;;;;;9.61;100.00;99054.03;6053457;28;20446;-71
2023/03/31 11:35:23;;;;;;;3.30;1.00;;;;;;;9.63;100.00;99054.66;6051696;28;20038;-70
2023/03/31 11:38:38;;;;;;;1.33;0.80;;;;;;;9.62;100.00;99068.09;6052218;28;20030;-70
2023/03/31 11:41:38;;;;;;;1.27;1.00;;;;;;;9.57;100.00;99071.25;6052231;28;20040;-70
2023/03/31 11:44:41;;;;;;;2.88;0.80;;;;;;;9.53;100.00;99065.53;6066765;28;20042;-71
2023/03/31 11:47:36;;;;;;;3.20;0.70;;;;;;;9.53;100.00;99054.94;6051445;28;20041;-71
2023/03/31 11:50:37;;;;;;;2.35;0.77;;;;;;;9.44;100.00;99045.44;6031160;28;20506;-72
2023/03/31 11:53:35;;;;;;;2.10;0.75;;;;;;;9.53;100.00;99048.81;6050592;28;20030;-71
2023/03/31 11:56:34;;;;;;;3.63;1.05;;;;;;;9.51;100.00;99034.94;6033713;28;20038;-71
2023/03/31 11:59:31;;;;;;;1.48;0.95;;;;;;;9.52;100.00;99026.81;6050093;28;20030;-71
2023/03/31 12:02:38;;;;;;;1.73;0.63;;;;;;;9.74;100.00;99046.28;6033963;28;20414;-71
2023/03/31 12:05:37;;;;;;;1.63;0.57;;;;;;;9.86;100.00;99039.53;6051875;28;20041;-70
2023/03/31 12:08:51;;;;;;;2.88;0.60;;;;;;;9.81;100.00;99039.25;6050282;28;20463;-71
2023/03/31 12:12:16;;;;;;;2.38;0.73;;;;;;;9.82;100.00;99019.72;6049344;28;20021;-71
2023/03/31 12:15:21;;;;;;;2.70;0.50;;;;;;;9.89;100.00;99035.72;6066548;28;20482;-72
2023/03/31 12:18:24;;;;;;;1.10;0.68;;;;;;;10.07;100.00;99029.03;6063724;28;20073;-72
2023/03/31 12:21:21;;;;;;;2.00;0.73;;;;;;;10.19;100.00;99024.13;6092672;28;20071;-70
2023/03/31 12:24:16;;;;;;;1.38;0.80;;;;;;;10.06;100.00;99002.72;6068906;28;20108;-71
2023/03/31 12:27:17;;;;;;;2.47;0.70;;;;;;;10.37;100.00;99015.75;6051182;28;20041;-71
2023/03/31 12:30:33;;;;;;;1.13;0.80;;;;;;;10.44;100.00;98996.28;6049808;28;20025;-72
2023/03/31 12:33:36;;;;;;;2.45;0.98;;;;;;;10.48;100.00;98986.94;6049638;28;20101;-70
2023/03/31 12:36:35;;;;;;;3.53;0.90;;;;;;;10.59;100.00;99009.50;6033159;28;20510;-73
2023/03/31 12:40:00;;;;;;;1.95;1.00;;;;;;;10.65;100.00;99003.44;6072105;28;20033;-71
2023/03/31 12:43:08;;;;;;;1.90;1.00;;;;;;;10.85;100.00;99000.97;6056681;28;20045;-73
2023/03/31 12:46:20;;;;;;;4.20;2.05;;;;;;;10.71;100.00;98987.59;6073773;28;20038;-70
2023/03/31 12:49:28;;;;;;;3.05;1.30;;;;;;;10.76;100.00;98990.47;6074360;28;20025;-72
2023/03/31 12:52:49;;;;;;;5.00;1.60;;;;;;;10.69;100.00;98973.72;6074263;28;20421;-70
2023/03/31 12:55:47;;;;;;;11.70;3.47;;;;;;;10.85;100.00;98971.78;6069795;28;20041;-70
2023/03/31 12:58:44;;;;;;;3.72;1.50;;;;;;;10.85;100.00;98988.53;6050323;28;20072;-72
2023/03/31 13:02:10;;;;;;;8.65;4.25;;;;;;;11.04;100.00;98976.44;6049924;28;20041;-71
2023/03/31 13:05:37;;;;;;;6.85;4.53;;;;;;;11.45;100.00;98974.72;6031451;28;20044;-73
2023/03/31 13:08:57;;;;;;;7.00;1.70;;;;;;;11.55;100.00;98975.19;6049849;28;20091;-73
2023/03/31 13:11:53;;;;;;;5.47;1.85;;;;;;;11.89;100.00;98951.31;6051135;28;20116;-70
2023/03/31 13:14:53;;;;;;;2.57;1.30;;;;;;;12.00;100.00;98951.75;6049583;28;20382;-70
2023/03/31 13:18:17;;;;;;;3.53;1.65;;;;;;;11.94;100.00;98951.53;6049788;28;20025;-72
2023/03/31 13:21:12;;;;;;;3.85;1.20;;;;;;;11.93;100.00;98947.22;6053180;28;20029;-72
2023/03/31 13:24:08;;;;;;;4.17;1.50;;;;;;;12.09;100.00;98955.91;6072853;28;20034;-71
2023/03/31 13:27:30;;;;;;;3.17;2.00;;;;;;;11.66;99.30;98944.66;6073148;28;20053;-70
2023/03/31 13:30:40;;;;;;;3.30;1.38;;;;;;;11.40;99.59;98940.00;6071999;28;20544;-70
2023/03/31 13:33:56;;;;;;;2.53;1.00;;;;;;;11.29;100.00;98927.25;6072421;28;20673;-72
2023/03/31 13:37:02;;;;;;;4.47;1.50;;;;;;;11.38;100.00;98919.97;6073310;28;20479;-71
2023/03/31 13:40:07;;;;;;;7.13;1.50;;;;;;;11.73;98.57;98929.59;6088239;28;20038;-72
2023/03/31 13:43:33;;;;;;;2.88;0.93;;;;;;;12.06;97.65;98925.22;6055869;28;20085;-71
2023/03/31 13:47:05;;;;;;;1.67;1.00;;;;;;;12.29;95.49;98919.56;6071147;28;20547;-72
2023/03/31 13:50:22;;;;;;;2.08;0.60;;;;;;;12.42;94.25;98930.22;6072748;28;20112;-73
2023/03/31 13:53:46;;;;;;;1.55;0.68;;;;;;;12.32;94.11;98922.63;6054989;28;20091;-73
2023/03/31 13:56:58;;;;;;;5.40;0.80;;;;;;;12.37;91.26;98922.84;6053030;28;20092;-73
2023/03/31 14:00:11;;;;;;;3.40;0.82;;;;;;;12.31;89.20;98912.22;6047897;28;20038;-70
2023/03/31 14:03:25;;;;;;;3.78;0.93;;;;;;;12.39;90.60;98922.66;6032112;28;20026;-72
2023/03/31 14:06:28;;;;;;;3.70;1.20;;;;;;;12.50;90.92;98916.75;6051521;28;20030;-72
2023/03/31 14:09:31;;;;;;;2.10;0.90;;;;;;;12.69;92.26;98913.28;6053648;28;20498;-73
2023/03/31 14:12:34;;;;;;;4.00;1.60;;;;;;;12.73;91.34;98925.16;6056282;28;20030;-73